Timeline UpdatesTrip UpdatesNews PostsPvt PostsTravel TipsAdmin PostsConv PostsFollowed PostsChat RequestsBlog PostsPNR Posts

Disclaimer
Search
 
 
Wed Sep 3, 2014 00:22:11 ISTHomeTrainsΣChainsAtlasPNRForumGalleryNewsFAQTripsMembersLoginFeedback
No Recent News for this Train
Other Trains in the News **new
Latest...
Augmented by 1 General Coach From 5 Oct 2013 to 10 Oct 2013. ARP (Advance Reservation Period) 30 days.
Fri Oct 04, 2013 (11:32AM)
⇐ Return Journey: Train# 12196

12195/Agra Fort - Ajmer Intercity Express

Time-Table HAS CHANGED.
Yesterday (12:29AM)
Change Departure Station:
Change Arrival Station:
Post a Train Travel TipPost a Train Travel Tip **new
Post a Comment/Question/Picture/VideoPost a Comment/Question/Picture/Video
Pantry/Catering
✕ NO Pantry Car
✓ Catering Avbl
RSA - Rake Sharing
Rake/Coach Composition
LOCO-SLR-GEN-C1-D1-D2-D3-D4-D5-D6-D7-D8-D9-GEN-SLR.
Loco
ABR WDM3A
News    PNR    Forum    Time-Table    Availability    Fare Chart    Map    Arr/Dep History    Trips    Gallery    ΣChains    X/O    Timeline    
Travel Time: 6h 45m    12 halts    Distance: 375 km    Avg Speed: 55 km/hr
Type: SuperFast
Zone: NCR/North Central
Departs @ 05:05
Platform# 2
SMTWTFS
Agra Fort/AF 
Arrives @ 11:50
Platform# 4
SMTWTFS
Ajmer Junction/AII 

12 halts. 57 intermediate Stations between Agra Fort and Ajmer Junction

Hide intermediate Stations  Show Old Time-Table

#CodeStation NameX/OArrivesAvgDepartsAvgHaltPFDay#KmSpeedElevZoneAddress
1AF»Agra Fort (3)»  -05:05-210.016170mNCRRakabganj, Uttar Pradesh
2IDHIdgah Agra Junction (3)  05:13-05:15-2m212.162168mNCRAgra, Uttar Pradesh
2.1BCPBichpuri (1)X  05:23-05:23-  110.5 62176mNCRAgra District, Uttar Pradesh
2.2RAIRaibha (1)  05:33-05:33-  121.3 62171mNCRBichpuri, Uttar Pradesh
3AHAchhnera Junction (3)  05:38-05:40-2m--126.082170mNCRAgra District, Uttar Pradesh
3.1CIKChiksana (1)X  05:47-05:47-  135.7 82177mNCRBharatpur, Rajasthan
3.2IKIkran (1)X  05:51-05:51-  141.1 82171mNCRBharatpur, Rajasthan
3.3NHBNoh Bachhamdi (1)  05:55-05:55-  146.7 82174mNCRBharatpur, Rajasthan
4BTEBharatpur Junction (5)  06:00-06:02-2m--153.481174mWCRBharatpur, Rajasthan
4.1HKHelak (1)  06:11-06:11-  165.2 81183mNCRBharatpur, Rajasthan
4.2PPEAPaprera (1)X  06:15-06:15-  171.7 81187mNCRNadbai, Rajasthan
5NBINadbai (1)X  06:24 06:23-06:25-1 2m1181.970203mNCRNadbai, Rajasthan
5.1TBLTarchhera Baraoliran (1)  06:32-06:32-  190.1 70210mNCRTalchherra, Rajasthan
6KLKherli (1)  06:40 06:39-06:41-1 2m1198.275219mNCRKherli, Rajasthan
6.1DTFDantla (1)  06:46-06:46-  1104.6 75224mNCRDantia, Rajasthan
6.2GOSGhosrana (1)X  06:51-06:51-  1111.0 75230mNCRKheril, Rajasthan
7MURDMandawar Mahwa Road (1)  06:58 06:57-06:59-1 2m11118.344242mNCRMandawar, Rajasthan
7.1BUDABhuda (1)  07:06-07:06-  1123.2 44253mNCRKheril, Rajasthan
7.2KPOKaranpura (1)  07:09-07:09-  1125.8 44252mNCRBandikui, Rajasthan
7.3BJRABhajera (1)  07:11-07:11-  1126.6 44253mNCRMandawar, Rajasthan
7.4BWBiwai (1)  07:16-07:16-  1130.8 44256mNCRBandikui, Rajasthan
7.5SHGNShri Ghasinagar (1)  07:22-07:22-  1135.0 44263mNCRBandikui, Rajasthan
8BKIBandikui Junction (6)X  07:43-07:45-2m61150.286283mNWRBandikui, Rajasthan
8.1ARNAArnia (2)  07:49-07:49-  1156.2 86288mNWRBandikui, Rajasthan
8.2KVGMKolvagram (2)  07:53-07:53-  1161.6 86294mNWRBandikui, Rajasthan
8.3BAKBhan Kari (2)X  07:58-07:58-  1168.2 86301mNWRDausa, Rajasthan
9DODausa (2)X  08:05-08:07-2m11179.074333mNWRDausa, Rajasthan
9.1BNDNBhandana (2)  08:13-08:13-  1186.2 74329mNWRBanskho, Rajasthan
9.2JWJatwara (2)X  08:17-08:17-  1191.0 74329mNWRDausa, Rajasthan
9.3BSKOBanskho (2)  08:23-08:23-  1198.4 74362mNWRJaipur, Rajasthan
9.4JHIRJhir (2)  08:25-08:25-  1201.0 74377mNWRKanauta, Rajasthan
9.5BAIBassi (3)  08:30-08:30-  1207.9 74352mNWRJaipur, Rajasthan
9.6KUTKanauta (2)  08:38-08:38-  1217.1 74350mNWRJaipur, Rajasthan
9.7KWPKhatipura (2)  08:43-08:43-  1223.6 74364mNWRGandhinagar, Rajasthan
10GTJTGetor Jagatpura (2)X  08:48-08:50-2m21229.614389mNWRJaipur, Rajasthan
11GADJJaipur Gandhinagar (2)X  09:14-09:16-2m21235.023426mNWRJaipur, Rajasthan
12JPJaipur Junction (7)X  09:30-09:40-10m31240.483434mNWRJaipur, Rajasthan
12.1KKUKanakpura  09:46-09:46-  1249.3 83429mNWRJaipur, Rajasthan
12.2BDYKBindayaka  09:50-09:50-  1254.5 83411mNWRJaipur, Rajasthan
12.3DNKDhanakya  09:54-09:54-  1259.0 83418mNWRJaipur, Rajasthan
12.4SHNXSheo Singh PuraO  09:56-09:56-  1262.8 83411mNWRJaipur, Rajasthan
12.5BOBSBobas  10:01-10:01-  1269.7 83396mNWRJaipur, Rajasthan
12.6JOBAsalpur Jobner  10:07-10:07-  1277.2 83379mNWRJaipur, Rajasthan
12.7DHNDDhindaX  10:11-10:11-  1282.8 83386mNWRMDR 59, Rajasthan
12.8HDAHirnoda  10:14-10:14-  1286.8 83400mNWRJaipur, Rajasthan
12.9FLPhulera Junction (5)  10:20-10:20-  1295.5 83386mNWRPhulera, Rajasthan
12.10BNWSBhanwsa  10:24-10:24-  1301.3 83382mNWRState Highway 2, Rajasthan
12.11NRINaraina  10:27-10:27-  1305.4 83377mNWRAjmer, Rajasthan
12.12DTRADantra  10:31-10:31-  1310.7 83366mNWRMDR 85, Rajasthan
12.13SKSakhun  10:36-10:36-  1317.5 83392mNWRAjmer, Rajasthan
12.14SALISali  10:41-10:41-  1324.3 83395mNWRAjmer, Rajasthan
12.15GLTAGahlota  10:46-10:46-  1331.4 83417mNWRKishangarh, Rajasthan
12.16TLTiloniya  10:49-10:49-  1335.6 83428mNWRTiloniya, Rajasthan
12.17MNDVMandawariya  10:53-10:53-  1340.6 83445mNWRHarmara Rd, Rajasthan
13KSGKishangarh (3)  10:57-10:59-2m11346.434443mNWRKishangarh, Rajasthan
13.1GEKGegal AkhriX  11:16-11:16-  1355.8 34459mNWRKishangarh, Rajasthan
13.2LRLadpura (2)X  11:26-11:26-  1361.5 34468mNWRAjmer, Rajasthan
13.3MDMadar Junction (6)  11:38-11:38-  1368.2 34490mNWRAjmer, Rajasthan
14AII•Ajmer Junction (5)•  11:50--41375.1-464mNWRPin: 305001, Rajasthan
Scroll to Top
Scroll to Bottom